Time;durP1;ratioP1;P1;durP2;ratioP2;P2;SDS_P1;SDS_P2;PMS_P1;PMS_P2;Temp;Humidity;BMP_temperature;BMP_pressure;BME280_temperature;BME280_humidity;BME280_pressure;Samples;Min_cycle;Max_cycle;Signal;HPM_P1;HPM_P2
2023/05/05 00:02:17;;;;;;;6.30;4.00;;;;;;;8.45;55.89;101185.23;105028;277;908865;-72
2023/05/05 00:04:53;;;;;;;6.60;3.70;;;;;;;8.45;56.54;101180.85;105622;277;39721;-73
2023/05/05 00:07:27;;;;;;;8.20;3.70;;;;;;;8.45;56.91;101183.14;105661;277;38708;-72
2023/05/05 00:10:05;;;;;;;4.80;3.80;;;;;;;8.44;56.95;101186.63;105994;277;38519;-73
2023/05/05 00:12:39;;;;;;;8.00;4.00;;;;;;;8.43;56.86;101191.86;106002;277;39686;-73
2023/05/05 00:15:17;;;;;;;7.70;3.80;;;;;;;8.43;56.87;101190.65;105694;277;39850;-73
2023/05/05 00:17:54;;;;;;;6.60;3.70;;;;;;;8.44;56.74;101187.33;105992;277;38242;-73
2023/05/05 00:20:29;;;;;;;7.70;3.80;;;;;;;8.45;56.23;101183.81;105992;277;38696;-73
2023/05/05 00:23:05;;;;;;;7.30;4.10;;;;;;;8.48;55.29;101183.08;105709;277;39123;-72
2023/05/05 00:25:41;;;;;;;5.90;4.20;;;;;;;8.52;54.71;101181.44;106032;277;38691;-74
2023/05/05 00:28:19;;;;;;;7.90;3.80;;;;;;;8.55;54.12;101178.63;105698;277;38825;-74
2023/05/05 00:30:56;;;;;;;6.70;4.40;;;;;;;8.58;53.82;101180.66;105700;277;38234;-72
2023/05/05 00:33:30;;;;;;;7.50;4.10;;;;;;;8.59;53.97;101184.48;105629;277;38556;-72
2023/05/05 00:36:08;;;;;;;6.00;3.70;;;;;;;8.57;53.71;101186.05;106043;277;38331;-74
2023/05/05 00:38:42;;;;;;;7.70;4.60;;;;;;;8.59;53.47;101179.77;106077;277;38347;-74
2023/05/05 00:41:17;;;;;;;5.00;3.70;;;;;;;8.60;54.06;101178.55;106059;277;38605;-75
2023/05/05 00:43:56;;;;;;;5.20;4.00;;;;;;;8.58;54.68;101182.90;105640;277;38887;-75
2023/05/05 00:46:34;;;;;;;5.50;3.90;;;;;;;8.55;55.31;101181.76;105647;277;38794;-73
2023/05/05 00:49:08;;;;;;;6.90;4.00;;;;;;;8.51;55.77;101181.30;106046;277;39727;-73
2023/05/05 00:51:45;;;;;;;5.60;3.80;;;;;;;8.47;56.06;101184.48;106052;277;38474;-74
2023/05/05 00:54:19;;;;;;;5.80;3.80;;;;;;;8.44;56.64;101185.77;106029;277;38725;-74
2023/05/05 00:56:56;;;;;;;7.60;3.60;;;;;;;8.38;57.05;101185.51;105637;277;38818;-74
2023/05/05 00:59:33;;;;;;;7.20;3.80;;;;;;;8.33;57.35;101185.73;105389;277;38260;-74
2023/05/05 01:02:08;;;;;;;6.30;3.90;;;;;;;8.31;57.88;101187.67;105613;277;38661;-74
2023/05/05 01:04:51;;;;;;;7.80;4.40;;;;;;;8.29;58.28;101184.58;106067;277;39555;-74
2023/05/05 01:07:40;;;;;;;5.30;4.10;;;;;;;8.28;58.76;101182.16;105646;277;38416;-75
2023/05/05 01:10:18;;;;;;;5.40;3.90;;;;;;;8.26;59.07;101179.73;105657;277;39002;-73
2023/05/05 01:12:58;;;;;;;6.20;3.90;;;;;;;8.26;59.02;101182.02;106060;277;38764;-73
2023/05/05 01:15:35;;;;;;;8.10;4.20;;;;;;;8.25;59.15;101182.89;105645;277;38330;-74
2023/05/05 01:18:15;;;;;;;6.30;4.30;;;;;;;8.24;59.28;101174.90;105400;279;38626;-74
2023/05/05 01:20:58;;;;;;;7.00;4.30;;;;;;;8.22;59.54;101176.34;105537;277;174485;-75
2023/05/05 01:24:05;;;;;;;5.90;4.60;;;;;;;8.19;59.71;101173.61;105555;277;174499;-75
2023/05/05 01:27:15;;;;;;;5.50;3.70;;;;;;;8.15;59.81;101179.58;105617;277;39412;-72
2023/05/05 01:30:08;;;;;;;5.00;3.60;;;;;;;8.11;60.28;101183.28;106038;277;38637;-73
2023/05/05 01:32:49;;;;;;;6.10;4.30;;;;;;;8.11;60.35;101182.94;105672;277;38459;-74
2023/05/05 01:35:29;;;;;;;6.70;4.30;;;;;;;8.12;60.70;101178.39;105048;277;859588;-74
2023/05/05 01:38:06;;;;;;;5.20;3.90;;;;;;;8.13;61.09;101183.08;105656;277;38505;-74
2023/05/05 01:40:46;;;;;;;8.30;4.20;;;;;;;8.12;61.16;101176.14;106076;277;38282;-74
2023/05/05 01:43:21;;;;;;;7.10;4.60;;;;;;;8.09;61.48;101167.49;105916;277;174558;-74
2023/05/05 01:45:58;;;;;;;5.50;4.10;;;;;;;8.06;61.38;101167.19;105596;277;38399;-74
2023/05/05 01:48:33;;;;;;;7.90;4.40;;;;;;;8.05;61.64;101162.34;105606;277;38478;-74
2023/05/05 01:51:12;;;;;;;5.80;4.30;;;;;;;8.03;62.03;101160.64;106062;277;38581;-74
2023/05/05 01:53:51;;;;;;;5.50;4.10;;;;;;;8.01;62.35;101159.62;105376;277;908668;-74
2023/05/05 01:56:26;;;;;;;4.80;4.00;;;;;;;8.00;62.78;101162.06;105645;277;38379;-74
2023/05/05 01:59:01;;;;;;;6.30;4.30;;;;;;;8.02;62.92;101166.90;105611;277;38268;-74
2023/05/05 02:01:43;;;;;;;6.50;4.50;;;;;;;8.03;63.15;101166.20;105606;277;38527;-74
2023/05/05 02:04:21;;;;;;;5.50;4.20;;;;;;;8.02;63.35;101163.77;105583;285;38223;-74
2023/05/05 02:07:04;;;;;;;5.30;4.60;;;;;;;8.03;63.59;101164.98;105545;277;39801;-72
2023/05/05 02:09:39;;;;;;;7.00;4.30;;;;;;;8.03;63.61;101158.55;106105;277;38372;-73
2023/05/05 02:12:14;;;;;;;5.50;4.10;;;;;;;8.04;63.67;101153.67;106005;276;39949;-74
2023/05/05 02:14:52;;;;;;;6.70;4.50;;;;;;;8.05;63.70;101151.06;105591;277;40418;-74
2023/05/05 02:17:27;;;;;;;7.90;4.10;;;;;;;8.08;63.81;101149.45;105584;277;39621;-74
2023/05/05 02:20:06;;;;;;;6.70;4.50;;;;;;;8.11;63.83;101144.70;106019;281;39468;-74
2023/05/05 02:22:42;;;;;;;8.80;4.60;;;;;;;8.15;63.91;101144.48;105577;277;38500;-74
2023/05/05 02:25:20;;;;;;;7.70;5.30;;;;;;;8.16;63.72;101141.50;105404;279;39616;-74
2023/05/05 02:27:57;;;;;;;10.60;4.90;;;;;;;8.16;63.60;101140.27;105580;277;39622;-74
2023/05/05 02:30:32;;;;;;;6.60;4.50;;;;;;;8.18;62.91;101143.54;105600;277;38354;-74
2023/05/05 02:33:15;;;;;;;5.80;4.60;;;;;;;8.20;62.89;101141.95;105586;277;38987;-74
2023/05/05 02:35:49;;;;;;;7.10;5.10;;;;;;;8.20;62.94;101134.99;105595;277;38454;-74
2023/05/05 02:38:29;;;;;;;7.50;4.40;;;;;;;8.20;63.00;101135.53;105600;277;38466;-74
2023/05/05 02:41:03;;;;;;;10.80;4.80;;;;;;;8.21;62.77;101131.66;105386;277;38278;-72
2023/05/05 02:43:41;;;;;;;5.80;4.40;;;;;;;8.26;62.53;101130.55;105461;277;174548;-72
2023/05/05 02:46:19;;;;;;;7.80;5.00;;;;;;;8.29;62.18;101130.52;105568;277;37903;-73
2023/05/05 02:48:55;;;;;;;6.40;4.20;;;;;;;8.32;62.12;101129.23;105595;277;38265;-73
2023/05/05 02:51:29;;;;;;;6.00;4.50;;;;;;;8.33;62.25;101127.67;105652;277;38307;-73
2023/05/05 02:54:03;;;;;;;7.80;4.50;;;;;;;8.33;62.35;101126.80;105624;277;38625;-73
2023/05/05 02:56:41;;;;;;;9.70;4.80;;;;;;;8.35;62.10;101129.73;105403;277;38883;-74
2023/05/05 02:59:26;;;;;;;7.50;4.80;;;;;;;8.35;62.32;101128.67;105608;277;38404;-74
2023/05/05 03:02:14;;;;;;;8.40;4.70;;;;;;;8.34;62.46;101128.69;105602;277;38476;-73
2023/05/05 03:04:57;;;;;;;6.50;4.20;;;;;;;8.34;62.77;101129.04;105613;277;39563;-72
2023/05/05 03:07:38;;;;;;;6.70;4.50;;;;;;;8.35;63.04;101124.67;105327;277;39445;-72
2023/05/05 03:10:18;;;;;;;7.30;4.70;;;;;;;8.39;63.19;101122.03;105475;277;174524;-74
2023/05/05 03:12:55;;;;;;;7.20;5.10;;;;;;;8.43;63.33;101119.53;105601;277;38451;-74
2023/05/05 03:15:36;;;;;;;10.00;5.40;;;;;;;8.45;63.44;101123.48;105670;277;38607;-74
2023/05/05 03:18:16;;;;;;;5.80;4.50;;;;;;;8.47;63.46;101122.41;106000;277;38575;-74
2023/05/05 03:20:52;;;;;;;9.20;5.10;;;;;;;8.47;63.39;101122.08;105553;277;174509;-74
2023/05/05 03:23:31;;;;;;;6.20;4.50;;;;;;;8.47;63.79;101120.67;105605;277;38318;-74
2023/05/05 03:26:08;;;;;;;5.70;4.50;;;;;;;8.49;63.70;101120.30;105649;277;38238;-74
2023/05/05 03:28:42;;;;;;;7.60;5.00;;;;;;;8.53;63.78;101118.14;105645;277;38695;-74
2023/05/05 03:31:20;;;;;;;7.20;4.40;;;;;;;8.57;63.66;101117.02;105684;277;38497;-74
2023/05/05 03:33:54;;;;;;;10.40;5.10;;;;;;;8.61;63.77;101116.95;105704;277;39160;-74
2023/05/05 03:36:32;;;;;;;9.60;4.70;;;;;;;8.64;63.88;101122.11;105691;277;38477;-74
2023/05/05 03:39:07;;;;;;;6.40;4.40;;;;;;;8.66;63.80;101124.86;105991;277;39896;-74
2023/05/05 03:41:43;;;;;;;7.30;4.80;;;;;;;8.67;63.82;101122.77;105703;277;38456;-74
2023/05/05 03:44:17;;;;;;;6.40;4.50;;;;;;;8.69;63.97;101124.45;106032;277;38549;-74
2023/05/05 03:46:54;;;;;;;7.00;4.40;;;;;;;8.73;64.13;101123.53;105968;277;38528;-74
2023/05/05 03:49:30;;;;;;;5.70;4.60;;;;;;;8.75;64.08;101127.13;104995;277;909228;-74
2023/05/05 03:52:05;;;;;;;5.70;4.20;;;;;;;8.82;64.30;101125.09;105335;279;38253;-72
2023/05/05 03:54:41;;;;;;;5.00;4.40;;;;;;;8.89;64.21;101124.79;105632;277;38538;-73
2023/05/05 03:57:17;;;;;;;5.90;4.60;;;;;;;8.97;63.58;101129.16;105684;277;38481;-73
2023/05/05 03:59:53;;;;;;;7.40;4.60;;;;;;;9.05;63.39;101132.82;105665;277;38271;-73
2023/05/05 04:02:28;;;;;;;6.60;4.40;;;;;;;9.12;63.76;101133.39;105995;277;38506;-73
2023/05/05 04:05:09;;;;;;;5.80;4.50;;;;;;;9.15;63.66;101132.10;105276;279;39862;-73
2023/05/05 04:07:45;;;;;;;7.50;4.50;;;;;;;9.20;63.55;101137.92;105645;277;38255;-74
2023/05/05 04:10:22;;;;;;;6.30;4.30;;;;;;;9.25;63.45;101142.15;105665;277;38723;-73
2023/05/05 04:12:57;;;;;;;13.00;5.00;;;;;;;9.31;62.76;101146.94;106052;277;40123;-73
2023/05/05 04:15:31;;;;;;;24.90;6.10;;;;;;;9.40;61.52;101151.29;106039;277;38637;-74
2023/05/05 04:18:06;;;;;;;24.90;6.50;;;;;;;9.49;60.99;101152.48;106021;277;38269;-73
2023/05/05 04:20:43;;;;;;;23.80;6.70;;;;;;;9.59;59.65;101155.59;106053;277;38929;-72
2023/05/05 04:23:18;;;;;;;15.00;6.30;;;;;;;9.71;59.18;101160.02;105673;277;38576;-73
2023/05/05 04:25:55;;;;;;;16.00;6.50;;;;;;;9.87;58.28;101165.08;105636;277;38508;-73
2023/05/05 04:28:33;;;;;;;18.00;6.30;;;;;;;10.04;57.36;101172.19;105615;277;39408;-73
2023/05/05 04:31:08;;;;;;;14.70;6.80;;;;;;;10.21;56.77;101173.89;105667;278;39356;-72
2023/05/05 04:33:46;;;;;;;15.00;7.70;;;;;;;10.37;56.54;101181.02;105532;277;171992;-72
2023/05/05 04:36:27;;;;;;;15.90;7.20;;;;;;;10.53;55.75;101185.34;105422;277;38813;-73
2023/05/05 04:39:10;;;;;;;16.90;8.30;;;;;;;10.68;54.75;101188.98;105635;277;38272;-74
2023/05/05 04:41:47;;;;;;;20.90;8.00;;;;;;;10.74;53.99;101192.83;105650;277;38233;-72
2023/05/05 04:44:23;;;;;;;22.90;8.70;;;;;;;10.82;53.25;101198.23;105670;277;38713;-72
2023/05/05 04:47:00;;;;;;;27.60;8.50;;;;;;;10.81;52.62;101203.81;105023;277;919481;-72
2023/05/05 04:49:39;;;;;;;32.30;9.30;;;;;;;10.85;52.60;101205.30;105650;277;38335;-73
2023/05/05 04:52:19;;;;;;;26.60;8.50;;;;;;;10.99;52.02;101201.09;106026;277;38669;-73
2023/05/05 04:55:00;;;;;;;27.50;9.00;;;;;;;11.13;51.77;101202.29;105510;277;174351;-73
2023/05/05 04:57:34;;;;;;;28.70;9.90;;;;;;;11.33;52.43;101201.21;105394;277;39376;-73
2023/05/05 05:00:15;;;;;;;34.90;10.20;;;;;;;11.74;52.84;101205.80;105631;277;38396;-72
2023/05/05 05:02:51;;;;;;;22.80;9.00;;;;;;;12.23;50.95;101205.75;105688;277;38265;-72
2023/05/05 05:05:26;;;;;;;23.00;9.10;;;;;;;12.51;49.39;101200.29;105644;277;38573;-73
2023/05/05 05:08:00;;;;;;;13.80;7.20;;;;;;;12.84;48.64;101201.45;105382;278;38395;-73
2023/05/05 05:10:39;;;;;;;12.10;7.10;;;;;;;13.06;47.46;101198.80;105635;277;38338;-73
2023/05/05 05:13:19;;;;;;;12.80;7.80;;;;;;;13.12;46.54;101202.05;105631;277;38523;-73
2023/05/05 05:15:56;;;;;;;12.60;7.80;;;;;;;13.17;45.84;101203.11;105642;277;38252;-73
2023/05/05 05:18:30;;;;;;;11.50;7.40;;;;;;;13.32;45.86;101203.85;105617;277;39464;-73
2023/05/05 05:21:07;;;;;;;11.70;7.80;;;;;;;13.52;45.81;101206.27;106058;277;38358;-73
2023/05/05 05:23:42;;;;;;;15.70;7.60;;;;;;;13.71;45.14;101202.91;105666;277;38318;-73
2023/05/05 05:26:17;;;;;;;13.10;7.20;;;;;;;13.77;44.89;101201.48;105657;277;38821;-73
2023/05/05 05:28:53;;;;;;;11.80;6.70;;;;;;;13.83;44.26;101201.60;106035;277;39982;-73
2023/05/05 05:31:33;;;;;;;11.30;6.50;;;;;;;13.87;43.87;101203.35;105647;277;38516;-74
2023/05/05 05:34:10;;;;;;;11.90;6.40;;;;;;;13.91;43.57;101204.42;106070;277;39285;-74
2023/05/05 05:36:48;;;;;;;12.90;6.20;;;;;;;13.95;43.10;101202.35;106096;277;38437;-74
2023/05/05 05:39:25;;;;;;;10.60;6.10;;;;;;;14.03;43.05;101204.52;105587;277;38381;-74
2023/05/05 05:42:01;;;;;;;10.40;6.30;;;;;;;14.26;42.79;101205.20;105597;277;38701;-74
2023/05/05 05:44:40;;;;;;;11.70;5.90;;;;;;;14.55;42.72;101204.19;105609;277;39418;-73
2023/05/05 05:47:15;;;;;;;10.10;5.90;;;;;;;14.98;41.96;101206.23;105591;277;39662;-74
2023/05/05 05:49:52;;;;;;;11.40;6.50;;;;;;;15.64;41.50;101206.33;106073;277;38386;-74
2023/05/05 05:52:28;;;;;;;10.70;6.50;;;;;;;16.39;40.30;101200.84;106040;277;38514;-74
2023/05/05 05:55:02;;;;;;;9.90;5.70;;;;;;;17.24;38.85;101197.48;106045;277;38743;-74
2023/05/05 05:57:38;;;;;;;9.50;5.60;;;;;;;18.10;37.60;101196.86;106001;277;38360;-74
2023/05/05 06:00:18;;;;;;;10.20;5.60;;;;;;;18.85;35.46;101195.54;106048;277;39038;-73
2023/05/05 06:02:54;;;;;;;11.40;6.50;;;;;;;19.41;35.01;101196.23;106074;277;38250;-74
2023/05/05 06:05:31;;;;;;;9.00;5.50;;;;;;;20.42;34.40;101189.60;105630;277;39598;-74
2023/05/05 06:08:12;;;;;;;9.50;5.50;;;;;;;21.28;32.15;101191.58;105639;277;38237;-74
2023/05/05 06:10:48;;;;;;;10.80;5.50;;;;;;;21.68;31.00;101191.82;105628;277;39594;-74
2023/05/05 06:13:25;;;;;;;12.30;6.30;;;;;;;21.66;29.96;101195.14;106034;277;38518;-75
2023/05/05 06:16:02;;;;;;;11.20;5.80;;;;;;;21.40;29.63;101202.11;105578;277;38323;-73
2023/05/05 06:18:38;;;;;;;7.90;5.10;;;;;;;21.21;29.30;101202.36;105608;277;38245;-74
2023/05/05 06:21:14;;;;;;;9.50;5.10;;;;;;;21.10;29.08;101207.01;105383;277;38808;-73
2023/05/05 06:23:53;;;;;;;15.10;6.00;;;;;;;21.12;28.74;101205.96;105650;277;39660;-73
2023/05/05 06:26:28;;;;;;;11.90;5.80;;;;;;;21.21;29.41;101207.69;106052;277;39118;-75
2023/05/05 06:29:06;;;;;;;9.00;5.90;;;;;;;21.44;29.01;101206.65;105623;277;38280;-75
2023/05/05 06:31:40;;;;;;;10.00;5.40;;;;;;;21.71;28.67;101208.27;104975;277;895598;-75
2023/05/05 06:34:17;;;;;;;9.10;5.10;;;;;;;22.13;28.49;101203.84;105600;277;38471;-75
2023/05/05 06:36:51;;;;;;;12.10;5.00;;;;;;;22.80;27.47;101206.49;105611;277;39460;-74
2023/05/05 06:39:30;;;;;;;5.90;4.20;;;;;;;23.58;26.50;101206.85;105507;277;171177;-74
2023/05/05 06:42:04;;;;;;;7.90;4.60;;;;;;;24.35;24.87;101209.33;105601;277;39471;-74
2023/05/05 06:44:40;;;;;;;10.90;4.80;;;;;;;24.98;24.89;101209.97;106009;277;38787;-74
2023/05/05 06:47:15;;;;;;;24.60;5.80;;;;;;;25.64;23.94;101206.06;105623;277;38489;-74
2023/05/05 06:49:53;;;;;;;11.60;4.70;;;;;;;26.42;23.42;101211.41;105589;277;38270;-74
2023/05/05 06:52:30;;;;;;;8.10;4.40;;;;;;;26.91;21.91;101212.96;105574;277;40029;-74
2023/05/05 06:55:06;;;;;;;7.60;5.00;;;;;;;27.40;21.81;101207.23;105479;277;173849;-75
2023/05/05 06:57:39;;;;;;;17.80;4.90;;;;;;;27.61;21.35;101210.23;105560;277;38213;-75
2023/05/05 07:00:19;;;;;;;10.50;4.20;;;;;;;27.50;20.84;101214.03;105579;277;38825;-75
2023/05/05 07:02:53;;;;;;;10.90;4.00;;;;;;;27.34;21.40;101216.40;105977;277;38518;-75
2023/05/05 07:05:31;;;;;;;12.10;3.90;;;;;;;27.43;21.18;101214.33;105272;277;39699;-75
2023/05/05 07:08:07;;;;;;;11.40;4.50;;;;;;;27.42;20.75;101216.03;105634;277;38311;-76
2023/05/05 07:10:43;;;;;;;12.50;4.90;;;;;;;27.19;20.48;101217.29;105598;277;38486;-75
2023/05/05 07:13:19;;;;;;;8.70;4.20;;;;;;;26.94;20.89;101215.84;105596;277;38502;-76
2023/05/05 07:15:54;;;;;;;11.00;4.30;;;;;;;27.05;21.18;101217.55;106014;281;38299;-75
2023/05/05 07:18:31;;;;;;;14.20;4.20;;;;;;;27.30;21.03;101214.30;106018;277;39086;-75
2023/05/05 07:21:07;;;;;;;10.40;4.30;;;;;;;27.66;20.71;101220.48;105662;277;39520;-76
2023/05/05 07:23:45;;;;;;;6.80;3.50;;;;;;;27.62;20.08;101225.38;105672;277;38264;-76
2023/05/05 07:26:22;;;;;;;6.30;4.00;;;;;;;27.41;19.87;101222.68;105554;277;173438;-76
2023/05/05 07:28:57;;;;;;;10.20;4.50;;;;;;;27.31;20.02;101222.83;106014;318;38902;-75
2023/05/05 07:31:36;;;;;;;7.30;4.60;;;;;;;27.33;19.90;101224.06;106026;277;38932;-75
2023/05/05 07:34:14;;;;;;;7.30;4.00;;;;;;;27.39;19.47;101221.64;105672;277;38282;-75
2023/05/05 07:36:55;;;;;;;6.80;3.90;;;;;;;27.45;19.59;101221.80;106006;277;39425;-75
2023/05/05 07:39:36;;;;;;;8.50;4.30;;;;;;;27.51;19.23;101221.03;106041;277;38265;-76
2023/05/05 07:42:15;;;;;;;11.10;4.30;;;;;;;27.44;19.57;101227.11;105635;277;39547;-74
2023/05/05 07:44:49;;;;;;;8.60;4.90;;;;;;;27.29;19.38;101229.46;105650;277;38806;-74
2023/05/05 07:47:23;;;;;;;10.10;5.80;;;;;;;27.16;19.62;101225.29;105639;277;38418;-74
2023/05/05 07:50:00;;;;;;;8.70;5.20;;;;;;;27.23;20.58;101231.06;106033;277;38235;-76
2023/05/05 07:52:35;;;;;;;10.10;5.10;;;;;;;27.44;19.70;101226.98;105440;285;38242;-76
2023/05/05 07:55:15;;;;;;;9.30;4.20;;;;;;;27.34;20.24;101227.86;105684;277;38289;-76
2023/05/05 07:57:51;;;;;;;7.00;4.00;;;;;;;27.14;20.45;101228.87;105630;277;38982;-76
2023/05/05 08:00:26;;;;;;;7.50;4.50;;;;;;;27.22;20.91;101223.64;105640;277;38627;-76
2023/05/05 08:03:03;;;;;;;9.10;3.90;;;;;;;27.42;20.50;101224.09;105630;277;38774;-77
2023/05/05 08:05:38;;;;;;;6.00;4.20;;;;;;;27.35;19.99;101229.21;106044;277;38242;-74
2023/05/05 08:08:23;;;;;;;6.00;3.90;;;;;;;27.42;20.18;101221.36;105681;278;39383;-74
2023/05/05 08:10:58;;;;;;;9.70;4.00;;;;;;;27.60;19.94;101224.54;105664;277;38475;-75
2023/05/05 08:13:38;;;;;;;9.90;4.10;;;;;;;27.61;19.96;101226.20;105639;277;38769;-75
2023/05/05 08:16:13;;;;;;;8.60;3.80;;;;;;;27.78;19.77;101228.67;105646;277;38240;-76
2023/05/05 08:18:50;;;;;;;7.90;3.90;;;;;;;27.84;19.60;101231.03;106016;277;38335;-76
2023/05/05 08:21:26;;;;;;;9.80;3.70;;;;;;;27.92;19.55;101234.65;106027;277;38332;-76
2023/05/05 08:24:05;;;;;;;12.80;4.00;;;;;;;28.26;19.39;101232.63;105661;277;38359;-76
2023/05/05 08:26:40;;;;;;;8.00;4.10;;;;;;;28.62;19.39;101235.29;105655;277;38228;-76
2023/05/05 08:29:19;;;;;;;5.50;3.60;;;;;;;28.69;18.95;101233.84;105637;277;39394;-76
2023/05/05 08:31:55;;;;;;;13.10;4.30;;;;;;;28.74;18.88;101233.48;105631;277;38854;-75
2023/05/05 08:34:40;;;;;;;7.30;4.20;;;;;;;28.66;18.74;101234.11;105653;277;38983;-75
2023/05/05 08:37:17;;;;;;;8.70;4.80;;;;;;;28.23;18.20;101234.88;105425;277;889340;-76
2023/05/05 08:40:01;;;;;;;5.60;3.40;;;;;;;27.21;18.64;101230.85;105645;277;40545;-75
2023/05/05 08:42:36;;;;;;;7.60;3.50;;;;;;;26.39;19.28;101232.63;105646;277;39402;-74
2023/05/05 08:45:13;;;;;;;7.70;3.50;;;;;;;25.89;20.18;101236.17;106041;277;38792;-76
2023/05/05 08:47:47;;;;;;;8.40;3.30;;;;;;;25.38;20.65;101230.44;105623;277;38345;-76
2023/05/05 08:50:23;;;;;;;7.00;3.20;;;;;;;24.96;20.71;101237.77;105646;277;38665;-74
2023/05/05 08:53:10;;;;;;;8.60;3.40;;;;;;;24.59;20.88;101239.85;105655;277;39912;-74
2023/05/05 08:55:55;;;;;;;10.90;3.80;;;;;;;24.31;22.16;101234.49;105666;277;39651;-75
2023/05/05 08:58:30;;;;;;;12.00;4.10;;;;;;;24.02;22.13;101233.81;106069;277;39058;-76
2023/05/05 09:01:05;;;;;;;9.40;3.50;;;;;;;23.91;22.63;101237.71;106068;277;40121;-75
2023/05/05 09:03:45;;;;;;;9.00;3.30;;;;;;;23.83;22.56;101239.78;105645;277;39463;-75
2023/05/05 09:06:25;;;;;;;6.00;3.50;;;;;;;23.65;22.80;101236.58;105520;277;188172;-75
2023/05/05 09:08:59;;;;;;;4.40;3.00;;;;;;;23.41;23.02;101237.90;106061;277;38513;-75
2023/05/05 09:11:35;;;;;;;7.30;3.30;;;;;;;23.19;23.30;101237.32;105650;277;38463;-74
2023/05/05 09:14:10;;;;;;;5.00;3.10;;;;;;;23.04;23.70;101239.00;105637;277;38421;-74
2023/05/05 09:16:47;;;;;;;4.40;3.00;;;;;;;22.97;23.77;101241.31;106098;277;38379;-74
2023/05/05 09:19:23;;;;;;;9.50;4.20;;;;;;;22.86;24.09;101242.15;105664;277;38789;-73
2023/05/05 09:21:58;;;;;;;10.70;3.10;;;;;;;22.73;24.27;101239.60;105647;277;39683;-74
2023/05/05 09:24:36;;;;;;;4.50;2.80;;;;;;;22.76;24.72;101239.70;106054;277;38682;-75
2023/05/05 09:27:26;;;;;;;7.30;3.30;;;;;;;22.83;24.09;101244.30;105663;277;38277;-75
2023/05/05 09:30:03;;;;;;;4.90;2.70;;;;;;;22.97;24.39;101241.67;105650;277;38634;-74
2023/05/05 09:32:49;;;;;;;8.30;3.70;;;;;;;23.44;24.87;101238.22;106061;285;38956;-73
2023/05/05 09:35:28;;;;;;;10.50;3.20;;;;;;;23.75;23.99;101242.20;104906;277;1016414;-74
2023/05/05 09:38:14;;;;;;;8.30;3.00;;;;;;;23.81;24.57;101241.36;105371;277;39079;-74
2023/05/05 09:40:52;;;;;;;7.50;2.70;;;;;;;23.87;24.23;101240.16;105659;277;39145;-75
2023/05/05 09:43:27;;;;;;;11.80;4.70;;;;;;;23.80;24.44;101242.02;105613;277;38801;-75
2023/05/05 09:46:10;;;;;;;63.70;44.00;;;;;;;23.55;24.36;101240.42;106058;278;38479;-74
2023/05/05 09:48:45;;;;;;;9.50;7.00;;;;;;;23.20;24.84;101239.20;105612;277;38839;-74
2023/05/05 09:51:25;;;;;;;9.30;4.00;;;;;;;23.14;25.08;101242.70;105644;277;39111;-74
2023/05/05 09:54:00;;;;;;;16.50;3.50;;;;;;;23.08;25.05;101249.34;104740;277;896009;-74
2023/05/05 09:56:45;;;;;;;14.20;3.20;;;;;;;22.84;25.44;101249.73;105663;277;38262;-74
2023/05/05 09:59:20;;;;;;;7.10;2.80;;;;;;;22.72;25.41;101250.36;105634;277;40202;-74
2023/05/05 10:01:55;;;;;;;8.20;3.00;;;;;;;22.54;25.68;101251.27;105420;277;39421;-75
2023/05/05 10:04:32;;;;;;;21.20;3.20;;;;;;;22.26;26.21;101251.75;105604;277;39403;-75
2023/05/05 10:07:08;;;;;;;23.70;4.20;;;;;;;22.01;26.40;101253.41;105610;277;38269;-75
2023/05/05 10:09:43;;;;;;;9.10;3.10;;;;;;;21.92;26.23;101252.94;106058;277;39670;-74
2023/05/05 10:12:18;;;;;;;10.90;2.90;;;;;;;21.75;26.43;101248.50;105920;277;173878;-74
2023/05/05 10:14:53;;;;;;;12.70;3.00;;;;;;;21.57;26.92;101250.96;105638;277;38234;-73
2023/05/05 10:17:29;;;;;;;14.60;3.40;;;;;;;21.56;26.95;101256.21;106005;277;38488;-73
2023/05/05 10:20:10;;;;;;;6.90;2.80;;;;;;;21.39;26.86;101251.90;105616;277;40220;-75
2023/05/05 10:22:52;;;;;;;9.10;4.40;;;;;;;21.31;27.38;101255.82;105584;277;38236;-75
2023/05/05 10:25:35;;;;;;;7.90;5.40;;;;;;;21.42;27.76;101255.77;105623;277;38544;-74
2023/05/05 10:28:11;;;;;;;6.30;3.60;;;;;;;21.53;27.55;101252.90;105600;277;38247;-74
2023/05/05 10:30:49;;;;;;;9.90;5.70;;;;;;;21.70;27.48;101250.27;106029;277;38547;-74
2023/05/05 10:33:30;;;;;;;13.30;4.70;;;;;;;21.88;27.33;101249.66;105532;277;173963;-74
2023/05/05 10:36:06;;;;;;;14.40;3.80;;;;;;;21.85;27.25;101252.73;105380;277;38243;-76
2023/05/05 10:38:41;;;;;;;5.80;2.50;;;;;;;21.87;27.14;101255.41;105371;277;38498;-76
2023/05/05 10:41:16;;;;;;;4.10;2.90;;;;;;;21.82;26.90;101249.77;105365;277;38256;-75
2023/05/05 10:43:51;;;;;;;6.50;3.40;;;;;;;21.67;27.20;101246.06;105587;277;38231;-75
2023/05/05 10:46:26;;;;;;;9.60;3.20;;;;;;;21.58;27.88;101253.94;105618;277;40055;-75
2023/05/05 10:49:05;;;;;;;14.10;3.20;;;;;;;21.62;27.81;101247.41;105998;277;38881;-76
2023/05/05 10:51:53;;;;;;;4.20;2.20;;;;;;;21.47;27.55;101252.95;105578;277;38276;-74
2023/05/05 10:54:33;;;;;;;8.50;2.70;;;;;;;21.18;27.74;101255.09;105605;275;39412;-73
2023/05/05 10:57:10;;;;;;;9.60;2.60;;;;;;;21.04;28.14;101252.88;106024;277;38153;-75
2023/05/05 10:59:47;;;;;;;13.30;3.60;;;;;;;20.94;28.67;101252.11;105470;277;173858;-75
2023/05/05 11:02:30;;;;;;;8.10;2.60;;;;;;;20.79;28.64;101252.92;105588;277;38502;-75
2023/05/05 11:05:20;;;;;;;8.70;3.50;;;;;;;20.59;29.19;101250.52;105597;277;38442;-75
2023/05/05 11:07:55;;;;;;;6.20;3.00;;;;;;;20.42;29.35;101247.20;105576;277;39853;-75
2023/05/05 11:10:41;;;;;;;7.40;2.70;;;;;;;20.24;29.33;101243.36;105570;277;38499;-75
2023/05/05 11:13:24;;;;;;;9.60;2.70;;;;;;;20.17;30.32;101244.95;105384;277;38484;-75
2023/05/05 11:16:00;;;;;;;8.30;3.50;;;;;;;20.23;30.10;101246.97;105997;277;38703;-74
2023/05/05 11:18:43;;;;;;;6.40;2.70;;;;;;;20.22;30.02;101243.20;105614;277;38443;-73
2023/05/05 11:21:21;;;;;;;10.60;2.50;;;;;;;20.15;30.39;101239.54;105633;277;38338;-75
2023/05/05 11:23:55;;;;;;;15.60;3.50;;;;;;;20.11;30.74;101242.30;105567;277;39698;-75
2023/05/05 11:26:54;;;;;;;7.20;2.70;;;;;;;20.13;30.45;101243.23;105605;277;38385;-75
2023/05/05 11:29:32;;;;;;;8.80;2.80;;;;;;;19.94;30.58;101248.88;105625;277;38470;-75
2023/05/05 11:32:23;;;;;;;6.70;2.30;;;;;;;19.80;30.66;101247.30;105617;277;38943;-76
2023/05/05 11:35:00;;;;;;;8.40;3.20;;;;;;;19.80;31.09;101242.86;106007;277;38315;-75
2023/05/05 11:37:35;;;;;;;6.70;2.60;;;;;;;19.83;31.24;101244.96;105647;277;38474;-75
2023/05/05 11:40:21;;;;;;;18.30;4.50;;;;;;;19.85;31.03;101253.88;105991;277;38791;-74
2023/05/05 11:43:12;;;;;;;7.30;3.10;;;;;;;19.68;30.93;101259.14;105625;277;39553;-74
2023/05/05 11:45:53;;;;;;;8.00;2.70;;;;;;;19.46;31.43;101251.64;105977;277;40277;-75
2023/05/05 11:48:32;;;;;;;11.10;3.50;;;;;;;19.29;31.80;101254.08;105251;279;38619;-75
2023/05/05 11:51:12;;;;;;;7.50;4.30;;;;;;;19.14;31.88;101249.86;105274;279;38354;-75
2023/05/05 11:53:48;;;;;;;6.30;2.50;;;;;;;19.02;32.01;101255.36;105307;279;173979;-75
2023/05/05 11:56:26;;;;;;;4.20;2.20;;;;;;;18.98;32.20;101250.13;105422;279;38439;-73
2023/05/05 11:59:14;;;;;;;5.20;2.40;;;;;;;18.93;32.58;101245.64;105422;279;39977;-73
2023/05/05 12:01:48;;;;;;;5.40;2.30;;;;;;;18.81;32.63;101244.60;105421;279;39575;-74
2023/05/05 12:04:24;;;;;;;13.10;3.50;;;;;;;18.71;32.85;101247.64;105443;279;39092;-74
2023/05/05 12:07:04;;;;;;;11.20;4.40;;;;;;;18.57;32.94;101245.05;105738;279;189044;-73
2023/05/05 12:09:39;;;;;;;5.80;2.60;;;;;;;18.44;33.29;101247.03;105419;279;39474;-74
2023/05/05 12:12:15;;;;;;;8.30;3.20;;;;;;;18.40;33.38;101243.58;105446;279;38444;-73
2023/05/05 12:14:54;;;;;;;14.30;3.00;;;;;;;18.27;33.56;101241.98;105433;279;38288;-75